page 6158 of 1004620 registered users

eBook PostsUsers

  1. 0coltevent72 registered @ 2013-02-25 18:20:23, last login @ 2013-02-25 18:20:23
  2. 0drawereagle00 registered @ 2013-02-25 18:20:52, last login @ 2013-02-25 18:20:52
  3. 0ratebomber1 registered @ 2013-02-25 18:21:50, last login @ 2013-02-25 18:21:50
  4. 0anklelight38 registered @ 2013-02-25 18:23:02, last login @ 2013-02-25 18:23:02
  5. 0oceannylon8 registered @ 2013-02-25 18:23:29, last login @ 2013-02-25 18:23:29
  6. 0squash9day registered @ 2013-02-25 18:24:08, last login @ 2013-02-25 18:24:08
  7. 0feastbulb7 registered @ 2013-02-25 18:24:27, last login @ 2013-02-25 18:24:27
  8. 0bobcat15steam registered @ 2013-02-25 18:24:38, last login @ 2013-02-25 18:24:38
  9. 0syruprange85 registered @ 2013-02-25 18:24:51, last login @ 2013-02-25 18:24:51
  10. 0dancebra88 registered @ 2013-02-25 18:25:19, last login @ 2013-02-25 18:25:19
  11. 0find3heron registered @ 2013-02-25 18:25:54, last login @ 2013-02-25 18:25:54
  12. 0number23spruce registered @ 2013-02-25 18:25:55, last login @ 2013-02-25 18:25:55
  13. 0bone0thread registered @ 2013-02-25 18:26:41, last login @ 2013-02-25 18:26:41
  14. 0saw1credit registered @ 2013-02-25 18:26:58, last login @ 2013-02-25 18:26:58
  15. 0shark9fear registered @ 2013-02-25 18:27:32, last login @ 2013-02-25 18:27:32
  16. 0owner14sampan registered @ 2013-02-25 18:27:34, last login @ 2013-02-25 18:27:34
  17. 0sealradar98 registered @ 2013-02-25 18:27:48, last login @ 2013-02-25 18:27:48
  18. 0poetbudget2 registered @ 2013-02-25 18:27:55, last login @ 2013-02-25 18:27:55
  19. 0window0atm registered @ 2013-02-25 18:28:16, last login @ 2013-02-25 18:28:16
  20. 0drawbreak0 registered @ 2013-02-25 18:28:48, last login @ 2013-02-25 18:28:48
  21. 0skirt34squid registered @ 2013-02-25 18:29:32, last login @ 2013-02-25 18:29:32
  22. 0search6litter registered @ 2013-02-25 18:30:26, last login @ 2013-02-25 18:30:26
  23. 0rat6pink registered @ 2013-02-25 18:31:21, last login @ 2013-02-25 18:31:21
  24. 0tvlinen9 registered @ 2013-02-25 18:31:24, last login @ 2013-02-25 18:31:24
  25. 0land76rugby registered @ 2013-02-25 18:31:59, last login @ 2013-02-25 18:31:59
  26. 0trormound registered @ 2013-02-25 18:32:27, last login @ 2013-02-25 18:58:36
  27. 0detailpoet1 registered @ 2013-02-25 18:32:57, last login @ 2013-02-25 18:32:57
  28. 0circlephone22 registered @ 2013-02-25 18:35:57, last login @ 2013-02-25 18:35:57
  29. 0mapflood5 registered @ 2013-02-25 18:37:14, last login @ 2013-02-25 18:50:27
  30. 0stone49fired registered @ 2013-02-25 18:37:37, last login @ 2013-02-25 18:37:37
  31. 0zebrafind22 registered @ 2013-02-25 18:37:50, last login @ 2013-02-25 18:37:50
  32. 0tuliplinda33 registered @ 2013-02-25 18:39:13, last login @ 2013-02-25 18:39:13
  33. 0naveen007nl registered @ 2013-02-25 18:40:34, last login @ 2013-02-25 18:43:08
  34. 0patio5comb registered @ 2013-02-25 18:41:56, last login @ 2013-02-25 18:41:56
  35. 0nail87elbow registered @ 2013-02-25 18:42:44, last login @ 2013-02-25 18:42:44
  36. 0creek6zephyr registered @ 2013-02-25 18:43:33, last login @ 2013-02-25 18:43:33
  37. 0courselunge9 registered @ 2013-02-25 18:43:42, last login @ 2013-02-25 18:43:42
  38. 0harbor6drug registered @ 2013-02-25 18:44:26, last login @ 2013-02-25 18:44:26
  39. 0avenue52tire registered @ 2013-02-25 18:44:54, last login @ 2013-02-25 18:44:54
  40. 0cd71rain registered @ 2013-02-25 18:45:01, last login @ 2013-02-25 18:45:01
  41. 0cave1angle registered @ 2013-02-25 18:45:11, last login @ 2013-02-25 18:45:11
  42. 0twineslave36 registered @ 2013-02-25 18:45:35, last login @ 2013-02-25 18:45:35
  43. 0kenyatoy78 registered @ 2013-02-25 18:45:39, last login @ 2013-02-25 18:45:39
  44. 0wallet9tanker registered @ 2013-02-25 18:46:05, last login @ 2013-02-25 18:46:05
  45. 0needcare9 registered @ 2013-02-25 18:46:07, last login @ 2013-02-25 18:46:07
  46. 0wire94woolen registered @ 2013-02-25 18:47:04, last login @ 2013-02-25 18:47:04
  47. 0temper80space registered @ 2013-02-25 18:47:48, last login @ 2013-02-25 18:47:48
  48. 0degreealloy0 registered @ 2013-02-25 18:47:54, last login @ 2013-02-25 18:47:54
  49. 0nurse0week registered @ 2013-02-25 18:48:30, last login @ 2013-02-25 18:48:30
  50. 0atm21voice registered @ 2013-02-25 18:49:04, last login @ 2013-02-25 18:49:04
  51. 0ant7harp registered @ 2013-02-25 18:49:20, last login @ 2013-02-25 18:49:20
  52. 0dew22chive registered @ 2013-02-25 18:49:21, last login @ 2013-02-25 18:49:21
  53. 0lycrahate30 registered @ 2013-02-25 18:50:11, last login @ 2013-02-25 18:50:11
  54. 0bathwedge22 registered @ 2013-02-25 18:50:16, last login @ 2013-02-25 18:50:16
  55. 0yachtmay62 registered @ 2013-02-25 18:51:25, last login @ 2013-02-25 18:51:25
  56. 0storm2pea registered @ 2013-02-25 18:52:07, last login @ 2013-02-25 18:52:07
  57. 0weaselmath90 registered @ 2013-02-25 18:52:48, last login @ 2013-02-25 18:52:48
  58. 0cover4potato registered @ 2013-02-25 18:55:39, last login @ 2013-02-25 18:55:39
  59. 0peonycheck94 registered @ 2013-02-25 18:56:19, last login @ 2013-02-25 18:56:19
  60. 0clubsoil4 registered @ 2013-02-25 18:56:48, last login @ 2013-02-25 18:56:48
  61. 0Edurombert registered @ 2013-02-25 18:57:28, last login @ 2013-02-25 18:57:28
  62. 0carlobjcphiel7 registered @ 2013-02-25 18:57:53, last login @ 2013-02-25 18:57:53
  63. 0sneezeweeder0 registered @ 2013-02-25 18:58:18, last login @ 2013-02-25 18:58:18
  64. 0sev registered @ 2013-02-25 18:58:35, last login @ 2013-02-25 18:58:35
  65. 0boat66bat registered @ 2013-02-25 18:58:47, last login @ 2013-02-25 18:58:47
  66. 0rain8bat registered @ 2013-02-25 18:59:05, last login @ 2013-02-25 18:59:05
  67. 0bobcat5cheese registered @ 2013-02-25 18:59:20, last login @ 2013-02-25 18:59:20
  68. 0weed27daisy registered @ 2013-02-25 19:00:43, last login @ 2013-02-25 19:00:43
  69. 0heart88voyage registered @ 2013-02-25 19:01:06, last login @ 2013-02-25 19:31:00
  70. 0foot14eight registered @ 2013-02-25 19:01:18, last login @ 2013-02-25 19:23:53
  71. 0mexico27jacket registered @ 2013-02-25 19:02:32, last login @ 2013-02-25 19:02:32
  72. 0oxygencut7 registered @ 2013-02-25 19:03:12, last login @ 2013-02-25 19:03:12
  73. 0leekknee74 registered @ 2013-02-25 19:04:42, last login @ 2013-02-25 19:04:42
  74. 0flymotion6 registered @ 2013-02-25 19:04:57, last login @ 2013-02-25 19:04:57
  75. 0battle2pike registered @ 2013-02-25 19:06:07, last login @ 2013-02-25 19:06:07
  76. 0justins19 registered @ 2013-02-25 19:06:36, last login @ 2013-02-25 19:06:36
  77. 0locketship03 registered @ 2013-02-25 19:06:42, last login @ 2013-02-25 19:06:42
  78. 0hairlove2 registered @ 2013-02-25 19:06:54, last login @ 2013-02-25 19:44:32
  79. 0slice06fish registered @ 2013-02-25 19:07:31, last login @ 2013-02-25 19:07:31
  80. 0switch6tax registered @ 2013-02-25 19:08:05, last login @ 2013-02-25 19:08:05
  81. 0wheel34eggnog registered @ 2013-02-25 19:08:41, last login @ 2013-02-25 19:08:41
  82. 0editorfork5 registered @ 2013-02-25 19:09:23, last login @ 2013-02-25 19:37:18
  83. 0part5beard registered @ 2013-02-25 19:09:41, last login @ 2013-02-25 19:09:41
  84. 0litterhole92 registered @ 2013-02-25 19:09:47, last login @ 2013-02-25 19:09:47
  85. 0elbow91jump registered @ 2013-02-25 19:09:49, last login @ 2013-02-25 19:09:49
  86. 0quillpeak4 registered @ 2013-02-25 19:10:14, last login @ 2013-02-25 19:10:14
  87. 0bsuthakur registered @ 2013-02-25 19:10:57, last login @ 2013-02-25 19:10:57
  88. 0pajamafine04 registered @ 2013-02-25 19:12:39, last login @ 2013-02-25 19:35:15
  89. 0smilefrog7 registered @ 2013-02-25 19:13:52, last login @ 2013-02-25 19:13:52
  90. 0plate3block registered @ 2013-02-25 19:15:59, last login @ 2013-02-25 19:44:57
  91. 0shadowhelium1 registered @ 2013-02-25 19:16:34, last login @ 2013-02-25 19:32:21
  92. 0doubttanker67 registered @ 2013-02-25 19:16:56, last login @ 2013-02-25 19:16:56
  93. 0printindex59 registered @ 2013-02-25 19:17:08, last login @ 2013-02-25 19:17:08
  94. 0canhammer52 registered @ 2013-02-25 19:17:11, last login @ 2013-02-25 19:17:11
  95. 0bugle9dog registered @ 2013-02-25 19:17:26, last login @ 2013-02-25 19:49:57
  96. 0shock6attic registered @ 2013-02-25 19:18:34, last login @ 2013-02-25 19:18:34
  97. 0dillperiod5 registered @ 2013-02-25 19:19:21, last login @ 2013-02-25 19:19:21
  98. 0engine4help registered @ 2013-02-25 19:20:06, last login @ 2013-02-25 19:20:06
  99. 0paradeson33 registered @ 2013-02-25 19:20:09, last login @ 2013-02-25 19:57:27
  100. 0throne3shrine registered @ 2013-02-25 19:20:18, last login @ 2013-02-25 19:58:25
  101. 0greenshell73 registered @ 2013-02-25 19:20:40, last login @ 2013-02-25 19:20:40

More...

[6168] [6167] [6166] [6165] [6164] [6163] [6162] [6161] [6160] [6159] [6158] [6157] [6156] [6155] [6154] [6153] [6152] [6151] [6150] [6149] ...[1]
Back to Top